sensor_id;sensor_type;location;lat;lon;timestamp;temperature;humidity
19330;DHT22;9799;48.214;16.388;2023-04-25T00:02:29;12.40;99.90
19330;DHT22;9799;48.214;16.388;2023-04-25T00:05:51;12.40;99.90
19330;DHT22;9799;48.214;16.388;2023-04-25T00:09:14;12.40;99.90
19330;DHT22;9799;48.214;16.388;2023-04-25T00:12:35;12.40;99.90
19330;DHT22;9799;48.214;16.388;2023-04-25T00:15:56;12.40;99.90
19330;DHT22;9799;48.214;16.388;2023-04-25T00:19:18;12.40;99.90
19330;DHT22;9799;48.214;16.388;2023-04-25T00:22:39;12.30;99.90
19330;DHT22;9799;48.214;16.388;2023-04-25T00:26:02;12.30;99.90
19330;DHT22;9799;48.214;16.388;2023-04-25T00:29:24;12.30;99.90
19330;DHT22;9799;48.214;16.388;2023-04-25T00:32:45;12.30;99.90
19330;DHT22;9799;48.214;16.388;2023-04-25T00:36:07;12.30;99.90
19330;DHT22;9799;48.214;16.388;2023-04-25T00:39:28;12.30;99.90
19330;DHT22;9799;48.214;16.388;2023-04-25T00:42:52;12.20;99.90
19330;DHT22;9799;48.214;16.388;2023-04-25T00:46:13;12.20;99.90
19330;DHT22;9799;48.214;16.388;2023-04-25T00:49:34;12.20;99.90
19330;DHT22;9799;48.214;16.388;2023-04-25T00:52:55;12.20;99.90
19330;DHT22;9799;48.214;16.388;2023-04-25T00:56:17;12.20;99.90
19330;DHT22;9799;48.214;16.388;2023-04-25T00:59:41;12.30;99.90
19330;DHT22;9799;48.214;16.388;2023-04-25T01:03:05;12.20;99.90
19330;DHT22;9799;48.214;16.388;2023-04-25T01:06:27;12.20;99.90
19330;DHT22;9799;48.214;16.388;2023-04-25T01:09:48;12.30;99.90
19330;DHT22;9799;48.214;16.388;2023-04-25T01:13:12;12.30;99.90
19330;DHT22;9799;48.214;16.388;2023-04-25T01:16:34;12.10;99.90
19330;DHT22;9799;48.214;16.388;2023-04-25T01:19:56;12.10;99.90
19330;DHT22;9799;48.214;16.388;2023-04-25T01:23:19;12.10;99.90
19330;DHT22;9799;48.214;16.388;2023-04-25T01:26:41;12.20;99.90
19330;DHT22;9799;48.214;16.388;2023-04-25T01:30:09;12.10;99.90
19330;DHT22;9799;48.214;16.388;2023-04-25T01:33:31;12.00;99.90
19330;DHT22;9799;48.214;16.388;2023-04-25T01:36:53;12.10;99.90
19330;DHT22;9799;48.214;16.388;2023-04-25T01:40:16;12.10;99.90
19330;DHT22;9799;48.214;16.388;2023-04-25T01:43:38;12.10;99.90
19330;DHT22;9799;48.214;16.388;2023-04-25T01:46:59;12.10;99.90
19330;DHT22;9799;48.214;16.388;2023-04-25T01:50:22;12.20;99.90
19330;DHT22;9799;48.214;16.388;2023-04-25T01:53:44;12.10;99.90
19330;DHT22;9799;48.214;16.388;2023-04-25T01:57:06;12.10;99.90
19330;DHT22;9799;48.214;16.388;2023-04-25T02:00:28;12.20;99.90
19330;DHT22;9799;48.214;16.388;2023-04-25T02:03:49;12.20;99.90
19330;DHT22;9799;48.214;16.388;2023-04-25T02:07:10;12.10;99.90
19330;DHT22;9799;48.214;16.388;2023-04-25T02:10:32;12.10;99.90
19330;DHT22;9799;48.214;16.388;2023-04-25T02:13:54;12.10;99.90
19330;DHT22;9799;48.214;16.388;2023-04-25T02:17:15;12.10;99.90
19330;DHT22;9799;48.214;16.388;2023-04-25T02:20:37;12.10;99.90
19330;DHT22;9799;48.214;16.388;2023-04-25T02:23:58;12.00;99.90
19330;DHT22;9799;48.214;16.388;2023-04-25T02:27:20;12.00;99.90
19330;DHT22;9799;48.214;16.388;2023-04-25T02:30:42;11.90;99.90
19330;DHT22;9799;48.214;16.388;2023-04-25T02:34:04;11.90;99.90
19330;DHT22;9799;48.214;16.388;2023-04-25T02:37:25;11.90;99.90
19330;DHT22;9799;48.214;16.388;2023-04-25T02:40:46;11.80;99.90
19330;DHT22;9799;48.214;16.388;2023-04-25T02:44:07;11.80;99.90
19330;DHT22;9799;48.214;16.388;2023-04-25T02:47:30;11.80;99.90
19330;DHT22;9799;48.214;16.388;2023-04-25T02:50:51;11.90;99.90
19330;DHT22;9799;48.214;16.388;2023-04-25T02:54:12;11.90;99.90
19330;DHT22;9799;48.214;16.388;2023-04-25T02:57:33;11.80;99.90
19330;DHT22;9799;48.214;16.388;2023-04-25T03:00:54;11.80;99.90
19330;DHT22;9799;48.214;16.388;2023-04-25T03:04:17;11.70;99.90
19330;DHT22;9799;48.214;16.388;2023-04-25T03:07:39;11.70;99.90
19330;DHT22;9799;48.214;16.388;2023-04-25T03:11:00;11.70;99.90
19330;DHT22;9799;48.214;16.388;2023-04-25T03:14:21;11.70;99.90
19330;DHT22;9799;48.214;16.388;2023-04-25T03:17:42;11.70;99.90
19330;DHT22;9799;48.214;16.388;2023-04-25T03:21:05;11.70;99.90
19330;DHT22;9799;48.214;16.388;2023-04-25T03:24:26;11.70;99.90
19330;DHT22;9799;48.214;16.388;2023-04-25T03:27:48;11.70;99.90
19330;DHT22;9799;48.214;16.388;2023-04-25T03:31:09;11.60;99.90
19330;DHT22;9799;48.214;16.388;2023-04-25T03:34:30;11.60;99.90
19330;DHT22;9799;48.214;16.388;2023-04-25T03:37:53;11.40;99.90
19330;DHT22;9799;48.214;16.388;2023-04-25T03:41:14;11.50;99.90
19330;DHT22;9799;48.214;16.388;2023-04-25T03:44:35;11.50;99.90
19330;DHT22;9799;48.214;16.388;2023-04-25T03:47:56;11.50;99.90
19330;DHT22;9799;48.214;16.388;2023-04-25T03:51:17;11.40;99.90
19330;DHT22;9799;48.214;16.388;2023-04-25T03:54:40;11.40;99.90
19330;DHT22;9799;48.214;16.388;2023-04-25T03:58:01;11.40;99.90
19330;DHT22;9799;48.214;16.388;2023-04-25T04:01:23;11.30;99.90
19330;DHT22;9799;48.214;16.388;2023-04-25T04:04:44;11.40;99.90
19330;DHT22;9799;48.214;16.388;2023-04-25T04:08:06;11.30;99.90
19330;DHT22;9799;48.214;16.388;2023-04-25T04:11:28;11.30;99.90
19330;DHT22;9799;48.214;16.388;2023-04-25T04:14:51;11.30;99.90
19330;DHT22;9799;48.214;16.388;2023-04-25T04:18:12;11.30;99.90
19330;DHT22;9799;48.214;16.388;2023-04-25T04:21:33;11.20;99.90
19330;DHT22;9799;48.214;16.388;2023-04-25T04:24:55;11.20;99.90
19330;DHT22;9799;48.214;16.388;2023-04-25T04:28:19;11.30;99.90
19330;DHT22;9799;48.214;16.388;2023-04-25T04:31:40;11.30;99.90
19330;DHT22;9799;48.214;16.388;2023-04-25T04:35:01;11.20;99.90
19330;DHT22;9799;48.214;16.388;2023-04-25T04:38:23;11.20;99.90
19330;DHT22;9799;48.214;16.388;2023-04-25T04:41:45;11.20;99.90
19330;DHT22;9799;48.214;16.388;2023-04-25T04:45:08;11.10;99.90
19330;DHT22;9799;48.214;16.388;2023-04-25T04:48:31;11.10;99.90
19330;DHT22;9799;48.214;16.388;2023-04-25T04:51:53;11.10;99.90
19330;DHT22;9799;48.214;16.388;2023-04-25T04:55:15;11.20;99.90
19330;DHT22;9799;48.214;16.388;2023-04-25T04:58:36;11.10;99.90
19330;DHT22;9799;48.214;16.388;2023-04-25T05:01:59;11.20;99.90
19330;DHT22;9799;48.214;16.388;2023-04-25T05:05:20;11.10;99.90
19330;DHT22;9799;48.214;16.388;2023-04-25T05:08:41;10.90;99.90
19330;DHT22;9799;48.214;16.388;2023-04-25T05:12:03;10.90;99.90
19330;DHT22;9799;48.214;16.388;2023-04-25T05:15:24;11.00;99.90
19330;DHT22;9799;48.214;16.388;2023-04-25T05:18:47;10.90;99.90
19330;DHT22;9799;48.214;16.388;2023-04-25T05:22:08;11.00;99.90
19330;DHT22;9799;48.214;16.388;2023-04-25T05:25:30;11.10;99.90
19330;DHT22;9799;48.214;16.388;2023-04-25T05:28:51;11.10;99.90
19330;DHT22;9799;48.214;16.388;2023-04-25T05:32:12;11.00;99.90
19330;DHT22;9799;48.214;16.388;2023-04-25T05:35:35;11.10;99.90
19330;DHT22;9799;48.214;16.388;2023-04-25T05:38:56;11.20;99.90
19330;DHT22;9799;48.214;16.388;2023-04-25T05:42:17;11.20;99.90
19330;DHT22;9799;48.214;16.388;2023-04-25T05:45:38;11.50;99.90
19330;DHT22;9799;48.214;16.388;2023-04-25T05:49:00;11.60;99.90
19330;DHT22;9799;48.214;16.388;2023-04-25T05:52:23;11.90;99.90
19330;DHT22;9799;48.214;16.388;2023-04-25T05:55:44;11.90;99.90
19330;DHT22;9799;48.214;16.388;2023-04-25T05:59:06;12.20;99.90
19330;DHT22;9799;48.214;16.388;2023-04-25T06:02:27;12.30;99.90
19330;DHT22;9799;48.214;16.388;2023-04-25T06:05:48;12.50;99.90
19330;DHT22;9799;48.214;16.388;2023-04-25T06:09:11;12.50;99.90
19330;DHT22;9799;48.214;16.388;2023-04-25T06:12:32;12.60;99.90
19330;DHT22;9799;48.214;16.388;2023-04-25T06:15:53;12.70;99.90
19330;DHT22;9799;48.214;16.388;2023-04-25T06:19:14;12.80;99.90
19330;DHT22;9799;48.214;16.388;2023-04-25T06:22:36;13.00;99.90
19330;DHT22;9799;48.214;16.388;2023-04-25T06:25:58;13.10;99.90
19330;DHT22;9799;48.214;16.388;2023-04-25T06:29:20;13.20;99.90
19330;DHT22;9799;48.214;16.388;2023-04-25T06:32:41;13.30;99.90
19330;DHT22;9799;48.214;16.388;2023-04-25T06:36:03;13.20;99.90
19330;DHT22;9799;48.214;16.388;2023-04-25T06:39:24;13.20;99.90
19330;DHT22;9799;48.214;16.388;2023-04-25T06:42:47;13.30;99.90
19330;DHT22;9799;48.214;16.388;2023-04-25T06:46:08;13.40;99.90
19330;DHT22;9799;48.214;16.388;2023-04-25T06:49:29;13.40;99.90
19330;DHT22;9799;48.214;16.388;2023-04-25T06:52:50;13.50;99.90
19330;DHT22;9799;48.214;16.388;2023-04-25T06:56:12;13.50;99.90
19330;DHT22;9799;48.214;16.388;2023-04-25T06:59:34;13.30;99.90
19330;DHT22;9799;48.214;16.388;2023-04-25T07:02:55;13.40;99.90
19330;DHT22;9799;48.214;16.388;2023-04-25T07:06:16;13.50;99.90
19330;DHT22;9799;48.214;16.388;2023-04-25T07:09:38;13.50;99.90
19330;DHT22;9799;48.214;16.388;2023-04-25T07:12:59;13.60;99.90
19330;DHT22;9799;48.214;16.388;2023-04-25T07:16:21;13.80;99.90
19330;DHT22;9799;48.214;16.388;2023-04-25T07:19:42;13.80;99.90
19330;DHT22;9799;48.214;16.388;2023-04-25T07:23:04;13.60;99.90
19330;DHT22;9799;48.214;16.388;2023-04-25T07:26:25;13.90;99.90
19330;DHT22;9799;48.214;16.388;2023-04-25T07:29:47;14.00;99.90
19330;DHT22;9799;48.214;16.388;2023-04-25T07:33:09;14.10;99.90
19330;DHT22;9799;48.214;16.388;2023-04-25T07:36:31;14.20;99.90
19330;DHT22;9799;48.214;16.388;2023-04-25T07:39:52;14.40;99.90
19330;DHT22;9799;48.214;16.388;2023-04-25T07:43:13;14.30;99.90
19330;DHT22;9799;48.214;16.388;2023-04-25T07:46:36;14.20;99.90
19330;DHT22;9799;48.214;16.388;2023-04-25T07:49:59;14.30;99.90
19330;DHT22;9799;48.214;16.388;2023-04-25T07:53:20;14.60;99.90
19330;DHT22;9799;48.214;16.388;2023-04-25T07:56:41;14.50;99.90
19330;DHT22;9799;48.214;16.388;2023-04-25T08:00:03;14.60;99.90
19330;DHT22;9799;48.214;16.388;2023-04-25T08:03:29;14.70;99.90
19330;DHT22;9799;48.214;16.388;2023-04-25T08:06:51;14.90;99.90
19330;DHT22;9799;48.214;16.388;2023-04-25T08:10:13;14.80;99.90
19330;DHT22;9799;48.214;16.388;2023-04-25T08:13:34;14.90;99.90
19330;DHT22;9799;48.214;16.388;2023-04-25T08:16:56;15.00;99.90
19330;DHT22;9799;48.214;16.388;2023-04-25T08:20:17;15.10;99.90
19330;DHT22;9799;48.214;16.388;2023-04-25T08:23:39;14.90;99.90
19330;DHT22;9799;48.214;16.388;2023-04-25T08:27:01;15.00;99.90
19330;DHT22;9799;48.214;16.388;2023-04-25T08:30:22;14.90;99.90
19330;DHT22;9799;48.214;16.388;2023-04-25T08:33:43;15.10;99.90
19330;DHT22;9799;48.214;16.388;2023-04-25T08:37:05;14.80;99.90
19330;DHT22;9799;48.214;16.388;2023-04-25T08:40:28;15.00;99.90
19330;DHT22;9799;48.214;16.388;2023-04-25T08:43:51;15.10;99.90
19330;DHT22;9799;48.214;16.388;2023-04-25T08:47:12;15.20;99.90
19330;DHT22;9799;48.214;16.388;2023-04-25T08:50:34;15.40;99.90
19330;DHT22;9799;48.214;16.388;2023-04-25T08:53:56;15.70;99.90
19330;DHT22;9799;48.214;16.388;2023-04-25T08:57:21;15.70;99.90
19330;DHT22;9799;48.214;16.388;2023-04-25T09:00:42;15.80;99.90
19330;DHT22;9799;48.214;16.388;2023-04-25T09:04:04;15.80;99.50
19330;DHT22;9799;48.214;16.388;2023-04-25T09:07:25;16.00;99.20
19330;DHT22;9799;48.214;16.388;2023-04-25T09:10:46;15.80;98.30
19330;DHT22;9799;48.214;16.388;2023-04-25T09:14:13;15.30;99.40
19330;DHT22;9799;48.214;16.388;2023-04-25T09:17:34;15.20;99.90
19330;DHT22;9799;48.214;16.388;2023-04-25T09:21:06;15.10;99.90
19330;DHT22;9799;48.214;16.388;2023-04-25T09:24:35;14.90;99.90
19330;DHT22;9799;48.214;16.388;2023-04-25T09:27:56;14.90;99.90
19330;DHT22;9799;48.214;16.388;2023-04-25T09:31:23;14.90;99.90
19330;DHT22;9799;48.214;16.388;2023-04-25T09:34:46;14.80;99.90
19330;DHT22;9799;48.214;16.388;2023-04-25T09:38:10;14.90;99.90
19330;DHT22;9799;48.214;16.388;2023-04-25T09:41:32;14.60;99.90
19330;DHT22;9799;48.214;16.388;2023-04-25T09:44:54;14.60;99.90
19330;DHT22;9799;48.214;16.388;2023-04-25T09:48:19;14.40;99.90
19330;DHT22;9799;48.214;16.388;2023-04-25T09:51:41;14.30;99.90
19330;DHT22;9799;48.214;16.388;2023-04-25T09:55:02;14.60;99.90
19330;DHT22;9799;48.214;16.388;2023-04-25T09:58:24;14.60;99.90
19330;DHT22;9799;48.214;16.388;2023-04-25T10:01:45;14.70;99.90
19330;DHT22;9799;48.214;16.388;2023-04-25T10:05:09;14.60;99.90
19330;DHT22;9799;48.214;16.388;2023-04-25T10:08:32;14.60;99.90
19330;DHT22;9799;48.214;16.388;2023-04-25T10:11:54;14.70;99.90
19330;DHT22;9799;48.214;16.388;2023-04-25T10:15:16;14.80;99.90
19330;DHT22;9799;48.214;16.388;2023-04-25T10:18:38;14.90;99.50
19330;DHT22;9799;48.214;16.388;2023-04-25T10:22:07;15.40;99.60
19330;DHT22;9799;48.214;16.388;2023-04-25T10:25:28;15.60;99.90
19330;DHT22;9799;48.214;16.388;2023-04-25T10:28:56;14.90;99.90
19330;DHT22;9799;48.214;16.388;2023-04-25T10:32:18;15.10;99.90
19330;DHT22;9799;48.214;16.388;2023-04-25T10:35:40;15.40;99.30
19330;DHT22;9799;48.214;16.388;2023-04-25T10:39:04;15.80;98.50
19330;DHT22;9799;48.214;16.388;2023-04-25T10:42:29;15.70;98.40
19330;DHT22;9799;48.214;16.388;2023-04-25T10:45:51;15.60;97.70
19330;DHT22;9799;48.214;16.388;2023-04-25T10:49:29;15.20;97.70
19330;DHT22;9799;48.214;16.388;2023-04-25T10:52:51;15.00;97.70
19330;DHT22;9799;48.214;16.388;2023-04-25T10:56:16;14.80;97.70
19330;DHT22;9799;48.214;16.388;2023-04-25T10:59:40;14.80;97.80
19330;DHT22;9799;48.214;16.388;2023-04-25T11:03:02;15.10;97.60
19330;DHT22;9799;48.214;16.388;2023-04-25T11:06:29;15.50;97.20
19330;DHT22;9799;48.214;16.388;2023-04-25T11:09:53;16.10;95.90
19330;DHT22;9799;48.214;16.388;2023-04-25T11:13:16;16.60;94.60
19330;DHT22;9799;48.214;16.388;2023-04-25T11:16:38;16.90;94.70
19330;DHT22;9799;48.214;16.388;2023-04-25T11:19:59;16.60;94.10
19330;DHT22;9799;48.214;16.388;2023-04-25T11:23:20;16.40;94.10
19330;DHT22;9799;48.214;16.388;2023-04-25T11:26:42;15.70;95.00
19330;DHT22;9799;48.214;16.388;2023-04-25T11:30:15;15.80;96.30
19330;DHT22;9799;48.214;16.388;2023-04-25T11:33:36;15.50;94.00
19330;DHT22;9799;48.214;16.388;2023-04-25T11:36:57;15.40;95.20
19330;DHT22;9799;48.214;16.388;2023-04-25T11:40:19;15.30;97.10
19330;DHT22;9799;48.214;16.388;2023-04-25T11:43:40;14.90;98.70
19330;DHT22;9799;48.214;16.388;2023-04-25T11:47:05;14.40;99.90
19330;DHT22;9799;48.214;16.388;2023-04-25T11:50:28;13.80;99.90
19330;DHT22;9799;48.214;16.388;2023-04-25T11:53:49;13.40;99.90
19330;DHT22;9799;48.214;16.388;2023-04-25T11:57:11;13.20;99.90
19330;DHT22;9799;48.214;16.388;2023-04-25T12:00:33;13.30;99.90
19330;DHT22;9799;48.214;16.388;2023-04-25T12:03:55;13.30;99.90
19330;DHT22;9799;48.214;16.388;2023-04-25T12:07:17;13.30;99.90
19330;DHT22;9799;48.214;16.388;2023-04-25T12:10:43;13.40;99.90
19330;DHT22;9799;48.214;16.388;2023-04-25T12:14:04;13.50;99.90
19330;DHT22;9799;48.214;16.388;2023-04-25T12:17:26;14.30;99.90
19330;DHT22;9799;48.214;16.388;2023-04-25T12:20:52;14.40;99.90
19330;DHT22;9799;48.214;16.388;2023-04-25T12:24:14;14.60;99.90
19330;DHT22;9799;48.214;16.388;2023-04-25T12:27:36;14.60;99.90
19330;DHT22;9799;48.214;16.388;2023-04-25T12:30:58;14.80;99.90
19330;DHT22;9799;48.214;16.388;2023-04-25T12:34:21;15.00;99.90
19330;DHT22;9799;48.214;16.388;2023-04-25T12:37:43;15.20;99.90
19330;DHT22;9799;48.214;16.388;2023-04-25T12:41:06;15.40;99.90
19330;DHT22;9799;48.214;16.388;2023-04-25T12:44:27;15.40;99.90
19330;DHT22;9799;48.214;16.388;2023-04-25T12:47:52;15.50;99.90
19330;DHT22;9799;48.214;16.388;2023-04-25T12:51:13;15.50;99.90
19330;DHT22;9799;48.214;16.388;2023-04-25T12:54:35;15.60;99.90
19330;DHT22;9799;48.214;16.388;2023-04-25T12:57:56;15.60;99.80
19330;DHT22;9799;48.214;16.388;2023-04-25T13:01:18;15.70;99.90
19330;DHT22;9799;48.214;16.388;2023-04-25T13:04:39;15.70;99.90
19330;DHT22;9799;48.214;16.388;2023-04-25T13:08:00;15.70;99.90
19330;DHT22;9799;48.214;16.388;2023-04-25T13:11:24;16.00;99.90
19330;DHT22;9799;48.214;16.388;2023-04-25T13:14:46;16.40;98.70
19330;DHT22;9799;48.214;16.388;2023-04-25T13:18:07;16.50;96.20
19330;DHT22;9799;48.214;16.388;2023-04-25T13:21:30;16.40;95.50
19330;DHT22;9799;48.214;16.388;2023-04-25T13:24:52;16.50;94.60
19330;DHT22;9799;48.214;16.388;2023-04-25T13:28:14;16.40;92.50
19330;DHT22;9799;48.214;16.388;2023-04-25T13:31:36;16.40;92.90
19330;DHT22;9799;48.214;16.388;2023-04-25T13:34:57;16.60;92.20
19330;DHT22;9799;48.214;16.388;2023-04-25T13:38:18;16.70;91.50
19330;DHT22;9799;48.214;16.388;2023-04-25T13:41:39;16.70;91.20
19330;DHT22;9799;48.214;16.388;2023-04-25T13:45:02;16.80;90.40
19330;DHT22;9799;48.214;16.388;2023-04-25T13:48:24;16.80;89.80
19330;DHT22;9799;48.214;16.388;2023-04-25T13:51:45;16.80;89.40
19330;DHT22;9799;48.214;16.388;2023-04-25T13:55:07;16.50;90.30
19330;DHT22;9799;48.214;16.388;2023-04-25T13:58:28;16.70;88.90
19330;DHT22;9799;48.214;16.388;2023-04-25T14:01:51;16.70;89.20
19330;DHT22;9799;48.214;16.388;2023-04-25T14:05:12;16.50;91.80
19330;DHT22;9799;48.214;16.388;2023-04-25T14:08:34;16.40;92.40
19330;DHT22;9799;48.214;16.388;2023-04-25T14:11:55;16.10;92.70
19330;DHT22;9799;48.214;16.388;2023-04-25T14:15:16;16.40;93.70
19330;DHT22;9799;48.214;16.388;2023-04-25T14:18:39;16.60;93.20
19330;DHT22;9799;48.214;16.388;2023-04-25T14:22:00;16.40;92.10
19330;DHT22;9799;48.214;16.388;2023-04-25T14:25:22;16.40;92.70
19330;DHT22;9799;48.214;16.388;2023-04-25T14:28:43;16.10;93.10
19330;DHT22;9799;48.214;16.388;2023-04-25T14:32:04;15.60;94.40
19330;DHT22;9799;48.214;16.388;2023-04-25T14:35:27;15.20;95.30
19330;DHT22;9799;48.214;16.388;2023-04-25T14:38:48;15.20;96.00
19330;DHT22;9799;48.214;16.388;2023-04-25T14:42:10;15.30;96.00
19330;DHT22;9799;48.214;16.388;2023-04-25T14:45:31;15.00;97.40
19330;DHT22;9799;48.214;16.388;2023-04-25T14:48:52;15.20;97.10
19330;DHT22;9799;48.214;16.388;2023-04-25T14:52:16;15.10;97.30
19330;DHT22;9799;48.214;16.388;2023-04-25T14:55:38;15.10;97.20
19330;DHT22;9799;48.214;16.388;2023-04-25T14:59:00;15.30;97.30
19330;DHT22;9799;48.214;16.388;2023-04-25T15:02:21;15.20;97.50
19330;DHT22;9799;48.214;16.388;2023-04-25T15:05:43;15.10;97.70
19330;DHT22;9799;48.214;16.388;2023-04-25T15:09:06;14.70;98.30
19330;DHT22;9799;48.214;16.388;2023-04-25T15:12:28;14.60;98.80
19330;DHT22;9799;48.214;16.388;2023-04-25T15:15:49;15.00;99.30
19330;DHT22;9799;48.214;16.388;2023-04-25T15:19:13;14.80;99.90
19330;DHT22;9799;48.214;16.388;2023-04-25T15:22:35;14.50;99.90
19330;DHT22;9799;48.214;16.388;2023-04-25T15:25:57;14.50;99.90
19330;DHT22;9799;48.214;16.388;2023-04-25T15:29:18;14.40;99.90
19330;DHT22;9799;48.214;16.388;2023-04-25T15:32:40;14.70;99.90
19330;DHT22;9799;48.214;16.388;2023-04-25T15:36:01;14.90;99.90
19330;DHT22;9799;48.214;16.388;2023-04-25T15:39:22;14.80;99.90
19330;DHT22;9799;48.214;16.388;2023-04-25T15:42:47;14.70;99.90
19330;DHT22;9799;48.214;16.388;2023-04-25T15:46:10;14.80;99.90
19330;DHT22;9799;48.214;16.388;2023-04-25T15:49:31;15.00;99.90
19330;DHT22;9799;48.214;16.388;2023-04-25T15:52:52;14.90;99.90
19330;DHT22;9799;48.214;16.388;2023-04-25T15:56:14;14.40;99.90
19330;DHT22;9799;48.214;16.388;2023-04-25T15:59:36;14.20;99.90
19330;DHT22;9799;48.214;16.388;2023-04-25T16:02:57;14.20;99.90
19330;DHT22;9799;48.214;16.388;2023-04-25T16:06:18;14.10;99.90
19330;DHT22;9799;48.214;16.388;2023-04-25T16:09:40;14.00;99.90
19330;DHT22;9799;48.214;16.388;2023-04-25T16:13:01;14.00;99.90
19330;DHT22;9799;48.214;16.388;2023-04-25T16:16:24;14.10;99.90
19330;DHT22;9799;48.214;16.388;2023-04-25T16:19:45;14.00;99.90
19330;DHT22;9799;48.214;16.388;2023-04-25T16:23:06;13.90;99.90
19330;DHT22;9799;48.214;16.388;2023-04-25T16:26:28;14.00;99.90
19330;DHT22;9799;48.214;16.388;2023-04-25T16:29:49;14.20;99.90
19330;DHT22;9799;48.214;16.388;2023-04-25T16:33:12;14.20;99.90
19330;DHT22;9799;48.214;16.388;2023-04-25T16:36:33;14.30;99.90
19330;DHT22;9799;48.214;16.388;2023-04-25T16:39:55;14.10;99.90
19330;DHT22;9799;48.214;16.388;2023-04-25T16:43:16;14.10;99.90
19330;DHT22;9799;48.214;16.388;2023-04-25T16:46:39;14.00;99.90
19330;DHT22;9799;48.214;16.388;2023-04-25T16:50:02;13.80;99.90
19330;DHT22;9799;48.214;16.388;2023-04-25T16:53:23;13.90;99.90
19330;DHT22;9799;48.214;16.388;2023-04-25T16:56:45;14.00;99.90
19330;DHT22;9799;48.214;16.388;2023-04-25T17:00:07;13.80;99.90
19330;DHT22;9799;48.214;16.388;2023-04-25T17:03:29;13.70;99.90
19330;DHT22;9799;48.214;16.388;2023-04-25T17:06:52;13.70;99.90
19330;DHT22;9799;48.214;16.388;2023-04-25T17:10:13;13.70;99.90
19330;DHT22;9799;48.214;16.388;2023-04-25T17:13:34;13.80;99.90
19330;DHT22;9799;48.214;16.388;2023-04-25T17:16:56;13.80;99.90
19330;DHT22;9799;48.214;16.388;2023-04-25T17:20:17;13.80;99.90
19330;DHT22;9799;48.214;16.388;2023-04-25T17:23:40;13.70;99.90
19330;DHT22;9799;48.214;16.388;2023-04-25T17:27:04;13.50;99.90
19330;DHT22;9799;48.214;16.388;2023-04-25T17:30:25;13.40;99.90
19330;DHT22;9799;48.214;16.388;2023-04-25T17:33:47;13.40;99.90
19330;DHT22;9799;48.214;16.388;2023-04-25T17:37:10;13.50;99.90
19330;DHT22;9799;48.214;16.388;2023-04-25T17:40:36;13.50;99.90
19330;DHT22;9799;48.214;16.388;2023-04-25T17:43:57;13.20;99.90
19330;DHT22;9799;48.214;16.388;2023-04-25T17:47:19;13.10;99.90
19330;DHT22;9799;48.214;16.388;2023-04-25T17:50:40;12.90;99.90
19330;DHT22;9799;48.214;16.388;2023-04-25T17:54:01;13.00;99.90
19330;DHT22;9799;48.214;16.388;2023-04-25T17:57:25;13.00;99.90
19330;DHT22;9799;48.214;16.388;2023-04-25T18:00:48;13.00;99.90
19330;DHT22;9799;48.214;16.388;2023-04-25T18:04:11;12.80;99.90
19330;DHT22;9799;48.214;16.388;2023-04-25T18:07:32;12.80;99.90
19330;DHT22;9799;48.214;16.388;2023-04-25T18:10:55;12.80;99.90
19330;DHT22;9799;48.214;16.388;2023-04-25T18:14:18;12.60;99.90
19330;DHT22;9799;48.214;16.388;2023-04-25T18:17:41;12.60;99.90
19330;DHT22;9799;48.214;16.388;2023-04-25T18:21:03;12.60;99.90
19330;DHT22;9799;48.214;16.388;2023-04-25T18:24:26;12.60;99.90
19330;DHT22;9799;48.214;16.388;2023-04-25T18:27:52;12.40;99.90
19330;DHT22;9799;48.214;16.388;2023-04-25T18:31:15;12.30;99.90
19330;DHT22;9799;48.214;16.388;2023-04-25T18:34:41;12.40;99.90
19330;DHT22;9799;48.214;16.388;2023-04-25T18:38:05;12.30;99.90
19330;DHT22;9799;48.214;16.388;2023-04-25T18:41:27;12.30;99.90
19330;DHT22;9799;48.214;16.388;2023-04-25T18:44:48;12.30;99.90
19330;DHT22;9799;48.214;16.388;2023-04-25T18:48:11;12.30;99.90
19330;DHT22;9799;48.214;16.388;2023-04-25T18:51:32;12.20;99.90
19330;DHT22;9799;48.214;16.388;2023-04-25T18:54:54;12.00;99.90
19330;DHT22;9799;48.214;16.388;2023-04-25T18:58:16;12.00;99.90
19330;DHT22;9799;48.214;16.388;2023-04-25T19:01:38;11.90;99.90
19330;DHT22;9799;48.214;16.388;2023-04-25T19:05:02;11.90;99.90
19330;DHT22;9799;48.214;16.388;2023-04-25T19:08:24;12.00;99.90
19330;DHT22;9799;48.214;16.388;2023-04-25T19:11:46;12.00;99.90
19330;DHT22;9799;48.214;16.388;2023-04-25T19:15:08;11.90;99.90
19330;DHT22;9799;48.214;16.388;2023-04-25T19:18:30;11.90;99.90
19330;DHT22;9799;48.214;16.388;2023-04-25T19:21:53;11.90;99.90
19330;DHT22;9799;48.214;16.388;2023-04-25T19:25:15;11.80;99.90
19330;DHT22;9799;48.214;16.388;2023-04-25T19:28:37;11.70;99.90
19330;DHT22;9799;48.214;16.388;2023-04-25T19:32:01;11.70;99.90
19330;DHT22;9799;48.214;16.388;2023-04-25T19:35:24;11.60;99.90
19330;DHT22;9799;48.214;16.388;2023-04-25T19:38:51;11.60;99.90
19330;DHT22;9799;48.214;16.388;2023-04-25T19:42:14;11.60;99.90
19330;DHT22;9799;48.214;16.388;2023-04-25T19:45:40;11.70;99.90
19330;DHT22;9799;48.214;16.388;2023-04-25T19:49:02;11.60;99.90
19330;DHT22;9799;48.214;16.388;2023-04-25T19:52:25;11.60;99.90
19330;DHT22;9799;48.214;16.388;2023-04-25T19:55:48;11.60;99.90
19330;DHT22;9799;48.214;16.388;2023-04-25T19:59:09;11.50;99.90
19330;DHT22;9799;48.214;16.388;2023-04-25T20:02:30;11.50;99.90
19330;DHT22;9799;48.214;16.388;2023-04-25T20:05:52;11.60;99.90
19330;DHT22;9799;48.214;16.388;2023-04-25T20:09:13;11.60;99.90
19330;DHT22;9799;48.214;16.388;2023-04-25T20:12:37;11.60;99.90
19330;DHT22;9799;48.214;16.388;2023-04-25T20:16:00;11.50;99.90
19330;DHT22;9799;48.214;16.388;2023-04-25T20:19:21;11.50;99.90
19330;DHT22;9799;48.214;16.388;2023-04-25T20:22:43;11.40;99.90
19330;DHT22;9799;48.214;16.388;2023-04-25T20:26:04;11.40;99.90
19330;DHT22;9799;48.214;16.388;2023-04-25T20:29:26;11.50;99.90
19330;DHT22;9799;48.214;16.388;2023-04-25T20:32:48;11.40;99.90
19330;DHT22;9799;48.214;16.388;2023-04-25T20:36:09;11.60;99.90
19330;DHT22;9799;48.214;16.388;2023-04-25T20:39:30;11.60;99.90
19330;DHT22;9799;48.214;16.388;2023-04-25T20:42:51;11.60;99.90
19330;DHT22;9799;48.214;16.388;2023-04-25T20:46:17;11.50;99.90
19330;DHT22;9799;48.214;16.388;2023-04-25T20:49:38;11.50;99.90
19330;DHT22;9799;48.214;16.388;2023-04-25T20:53:00;11.50;99.90
19330;DHT22;9799;48.214;16.388;2023-04-25T20:56:22;11.60;99.90
19330;DHT22;9799;48.214;16.388;2023-04-25T20:59:44;11.60;99.90
19330;DHT22;9799;48.214;16.388;2023-04-25T21:03:06;11.50;99.90
19330;DHT22;9799;48.214;16.388;2023-04-25T21:06:28;11.60;99.90
19330;DHT22;9799;48.214;16.388;2023-04-25T21:09:50;11.50;99.90
19330;DHT22;9799;48.214;16.388;2023-04-25T21:13:11;11.50;99.90
19330;DHT22;9799;48.214;16.388;2023-04-25T21:16:32;11.60;99.90